createdAt,value
2019-05-13T03:19:22.463Z,16.07
2019-05-13T03:21:56.399Z,14.80
2019-05-13T03:24:23.475Z,15.45
2019-05-13T03:26:53.284Z,14.90
2019-05-13T03:29:25.693Z,16.48
2019-05-13T03:31:55.782Z,15.70
2019-05-13T03:34:28.230Z,16.30
2019-05-13T03:37:36.468Z,16.50
2019-05-13T03:40:03.708Z,15.90
2019-05-13T03:43:12.852Z,15.35
2019-05-13T03:46:07.968Z,16.12
2019-05-13T03:48:35.175Z,14.10
2019-05-13T03:54:22.907Z,16.17
2019-05-13T03:56:57.585Z,14.63
2019-05-13T03:59:24.664Z,16.05
2019-05-13T04:01:52.580Z,13.80
2019-05-13T04:04:26.806Z,16.20
2019-05-13T04:06:53.856Z,15.85
2019-05-13T04:09:30.139Z,17.87
2019-05-13T04:11:55.945Z,15.28
2019-05-13T04:14:23.472Z,15.83
2019-05-13T04:16:58.500Z,16.32
2019-05-13T04:19:25.561Z,16.05
2019-05-13T04:21:53.016Z,16.30
2019-05-13T04:24:27.957Z,18.02
2019-05-13T04:26:57.805Z,16.02
2019-05-13T04:29:24.929Z,16.52
2019-05-13T04:31:53.161Z,15.80
2019-05-13T04:34:27.219Z,15.63
2019-05-13T04:37:35.134Z,18.05
2019-05-13T04:40:04.110Z,16.60
2019-05-13T04:42:42.480Z,19.83
2019-05-13T04:45:14.761Z,18.37
2019-05-13T04:47:43.232Z,17.95
2019-05-13T04:50:16.961Z,15.65
2019-05-13T04:52:44.039Z,16.40
2019-05-13T04:55:13.122Z,18.23
2019-05-13T04:57:46.649Z,17.05
2019-05-13T05:00:13.704Z,16.23
2019-05-13T05:03:23.075Z,16.15
2019-05-13T05:12:48.229Z,16.67
2019-05-13T05:15:54.236Z,14.23
2019-05-13T05:19:02.166Z,15.07
2019-05-13T05:22:13.431Z,14.07
2019-05-13T05:28:34.122Z,13.57
2019-05-13T05:31:44.222Z,14.47
2019-05-13T05:34:51.909Z,12.63
2019-05-13T05:38:02.490Z,13.03
2019-05-13T05:40:51.150Z,12.47
2019-05-13T05:43:59.048Z,13.47
2019-05-13T05:52:51.738Z,13.40
2019-05-13T05:56:02.169Z,12.53
2019-05-13T06:01:38.376Z,13.90
2019-05-13T06:04:46.340Z,12.63
2019-05-13T06:07:13.665Z,12.60
2019-05-13T06:09:52.884Z,13.43
2019-05-13T06:12:21.414Z,12.67
2019-05-13T06:14:59.044Z,14.20
2019-05-13T06:17:26.095Z,14.10
2019-05-13T06:19:53.279Z,12.70
2019-05-13T06:22:21.667Z,12.43
2019-05-13T06:25:01.424Z,11.87
2019-05-13T06:27:38.163Z,11.93
2019-05-13T06:30:05.422Z,12.20
2019-05-13T06:32:32.493Z,11.43
2019-05-13T06:35:01.878Z,12.53
2019-05-13T06:37:54.368Z,11.03
2019-05-13T06:40:26.219Z,12.40
2019-05-13T06:42:53.334Z,13.23
2019-05-13T06:45:21.670Z,16.60
2019-05-13T06:47:55.316Z,13.50
2019-05-13T06:50:22.402Z,12.00
2019-05-13T06:52:51.383Z,11.17
2019-05-13T06:55:26.327Z,12.10
2019-05-13T06:57:53.383Z,11.47
2019-05-13T07:00:21.595Z,11.50
2019-05-13T07:02:55.905Z,10.20
2019-05-13T07:05:23.018Z,11.07
2019-05-13T07:07:51.281Z,10.03
2019-05-13T07:10:26.614Z,10.20
2019-05-13T07:12:53.676Z,6.57
2019-05-13T07:15:22.354Z,7.77
2019-05-13T07:17:56.083Z,9.13
2019-05-13T07:20:23.181Z,10.10
2019-05-13T07:22:53.216Z,13.93
2019-05-13T07:28:05.513Z,8.30
2019-05-13T07:30:52.106Z,6.80
2019-05-13T07:33:38.731Z,6.63
2019-05-13T07:36:05.875Z,6.40
2019-05-13T07:38:32.943Z,5.03
2019-05-13T07:41:43.086Z,5.47
2019-05-13T07:44:16.628Z,5.87
2019-05-13T07:46:43.749Z,5.73
2019-05-13T07:49:31.565Z,4.93
2019-05-13T07:52:11.693Z,5.63
2019-05-13T07:54:57.220Z,5.70
2019-05-13T07:57:37.177Z,6.40
2019-05-13T08:00:04.629Z,5.80
2019-05-13T08:02:32.126Z,6.10
2019-05-13T08:05:54.318Z,5.33
2019-05-13T08:08:41.672Z,6.93
2019-05-13T08:11:16.549Z,5.33
2019-05-13T08:13:44.534Z,5.43
2019-05-13T08:16:22.080Z,4.97
2019-05-13T08:18:58.071Z,5.40
2019-05-13T08:21:25.139Z,5.50
2019-05-13T08:23:52.664Z,4.53
2019-05-13T08:26:49.868Z,4.30
2019-05-13T08:29:35.033Z,4.73
2019-05-13T08:32:14.236Z,3.90
2019-05-13T08:35:01.745Z,4.00
2019-05-13T08:37:35.473Z,3.70
2019-05-13T08:40:15.328Z,4.27
2019-05-13T08:42:42.457Z,4.93
2019-05-13T08:45:31.334Z,3.20
2019-05-13T08:48:07.920Z,3.00
2019-05-13T08:50:34.998Z,4.23
2019-05-13T08:53:02.094Z,3.80
2019-05-13T08:55:32.032Z,4.00
2019-05-13T08:58:04.837Z,3.63
2019-05-13T09:00:53.120Z,3.53
2019-05-13T09:03:32.619Z,2.57
2019-05-13T09:06:05.852Z,4.13
2019-05-13T09:08:54.685Z,2.77
2019-05-13T09:11:31.376Z,3.73
2019-05-13T09:14:04.465Z,3.47
2019-05-13T09:16:32.044Z,3.33
2019-05-13T09:19:15.747Z,3.00
2019-05-13T09:21:45.158Z,3.00
2019-05-13T09:24:23.928Z,3.90
2019-05-13T09:26:52.695Z,3.73
2019-05-13T09:29:27.149Z,4.07
2019-05-13T09:31:54.231Z,3.87
2019-05-13T09:34:22.079Z,3.30
2019-05-13T09:36:56.815Z,3.70
2019-05-13T09:39:23.963Z,3.40
2019-05-13T09:41:52.037Z,2.57
2019-05-13T09:44:32.395Z,2.70
2019-05-13T09:47:04.772Z,3.00
2019-05-13T09:49:32.847Z,3.00
2019-05-13T09:52:07.074Z,2.63
2019-05-13T09:54:34.198Z,2.83
2019-05-13T09:57:01.870Z,2.60
2019-05-13T09:59:36.321Z,3.93
2019-05-13T10:02:03.544Z,4.10
2019-05-13T10:04:43.943Z,3.10
2019-05-13T10:07:12.346Z,2.73
2019-05-13T10:09:48.361Z,2.80
2019-05-13T10:12:24.437Z,2.83
2019-05-13T10:14:56.878Z,2.90
2019-05-13T10:17:23.942Z,2.77
2019-05-13T10:19:52.016Z,3.13
2019-05-13T10:22:26.066Z,3.03
2019-05-13T10:24:53.137Z,2.53
2019-05-13T10:30:21.908Z,2.90
2019-05-13T10:32:48.985Z,3.10
2019-05-13T10:35:16.030Z,2.67
2019-05-13T10:38:27.735Z,2.90
2019-05-13T10:40:59.274Z,2.50
2019-05-13T10:43:31.359Z,2.40
2019-05-13T10:46:05.137Z,2.20
2019-05-13T10:48:32.192Z,3.60
2019-05-13T10:50:59.258Z,3.87
2019-05-13T10:53:26.364Z,3.00
2019-05-13T10:55:53.559Z,3.10
2019-05-13T10:58:23.345Z,2.83
2019-05-13T11:03:57.929Z,3.07
2019-05-13T11:06:25.018Z,2.90
2019-05-13T11:08:53.197Z,2.67
2019-05-13T11:11:33.008Z,2.23
2019-05-13T11:14:12.886Z,2.80
2019-05-13T11:16:44.864Z,2.40
2019-05-13T11:19:12.174Z,5.80
2019-05-13T11:21:51.048Z,4.10
2019-05-13T11:24:18.162Z,3.03
2019-05-13T11:26:45.215Z,2.50
2019-05-13T11:29:12.371Z,3.20
2019-05-13T11:31:42.497Z,4.40
2019-05-13T11:34:14.426Z,3.60
2019-05-13T11:36:52.837Z,4.00
2019-05-13T11:39:24.535Z,2.93
2019-05-13T11:41:51.621Z,2.80
2019-05-13T11:44:18.729Z,2.50
2019-05-13T11:46:45.820Z,2.70
2019-05-13T11:49:12.889Z,3.17
2019-05-13T11:51:41.850Z,2.43
2019-05-13T11:54:15.387Z,2.83
2019-05-13T11:56:49.150Z,3.23
2019-05-13T11:59:17.529Z,2.87
2019-05-13T12:01:44.643Z,2.60
2019-05-13T12:06:54.536Z,4.27
2019-05-13T12:09:31.961Z,3.70
2019-05-13T12:12:05.529Z,2.80
2019-05-13T12:14:44.291Z,3.63
2019-05-13T12:17:07.921Z,2.87
2019-05-13T12:19:35.064Z,2.77
2019-05-13T12:22:03.008Z,3.03
2019-05-13T12:24:37.719Z,2.80
2019-05-13T12:27:04.788Z,3.33
2019-05-13T12:29:31.866Z,3.67
2019-05-13T12:31:58.942Z,3.20
2019-05-13T12:34:26.005Z,2.80
2019-05-13T12:36:53.095Z,3.50
2019-05-13T12:39:23.837Z,3.40
2019-05-13T12:41:55.100Z,3.20
2019-05-13T12:44:22.921Z,3.20
2019-05-13T12:46:57.170Z,2.87
2019-05-13T12:49:31.496Z,2.87
2019-05-13T12:52:04.638Z,3.07
2019-05-13T12:54:38.395Z,2.70
2019-05-13T12:57:11.865Z,3.23
2019-05-13T12:59:44.418Z,2.90
2019-05-13T13:02:13.324Z,2.90
2019-05-13T13:05:07.875Z,2.90
2019-05-13T13:07:27.018Z,4.23
2019-05-13T13:09:54.210Z,3.10
2019-05-13T13:12:33.248Z,2.53
2019-05-13T13:14:56.448Z,3.10
2019-05-13T13:17:24.408Z,2.57
2019-05-13T13:20:06.098Z,3.10
2019-05-13T13:22:34.136Z,3.00
2019-05-13T13:25:05.026Z,3.27
2019-05-13T13:28:03.259Z,2.70
2019-05-13T13:30:36.712Z,3.20
2019-05-13T13:33:03.788Z,3.07
2019-05-13T13:35:33.714Z,3.17
2019-05-13T13:38:10.244Z,2.53
2019-05-13T13:40:37.862Z,2.77
2019-05-13T13:43:16.545Z,2.67
2019-05-13T13:48:18.627Z,2.87
2019-05-13T13:50:45.763Z,2.87
2019-05-13T13:53:14.321Z,2.50
2019-05-13T13:55:55.984Z,2.23
2019-05-13T13:58:26.676Z,2.80
2019-05-13T14:01:05.634Z,2.97
2019-05-13T14:03:32.951Z,2.27
2019-05-13T14:06:06.191Z,3.00
2019-05-13T14:07:09.298Z,2.77
2019-05-13T14:08:42.613Z,3.20
2019-05-13T14:11:11.662Z,2.77
2019-05-13T14:13:44.874Z,3.03
2019-05-13T14:16:24.833Z,3.00
2019-05-13T14:18:46.981Z,2.93
2019-05-13T14:21:14.081Z,2.40
2019-05-13T14:23:42.571Z,2.60
2019-05-13T14:26:16.889Z,4.37
2019-05-13T14:28:43.967Z,2.33
2019-05-13T14:31:12.779Z,2.20
2019-05-13T14:33:45.915Z,2.50
2019-05-13T14:36:13.182Z,3.10
2019-05-13T14:38:40.374Z,1.93
2019-05-13T14:41:09.292Z,2.40
2019-05-13T14:46:47.179Z,2.67
2019-05-13T14:49:14.315Z,2.93
2019-05-13T14:51:41.693Z,3.00
2019-05-13T14:54:17.219Z,2.23
2019-05-13T14:59:41.367Z,1.80
2019-05-13T15:02:07.830Z,1.87
2019-05-13T15:05:13.751Z,2.00
2019-05-13T15:10:36.949Z,2.20
2019-05-13T15:13:06.435Z,1.90
2019-05-13T15:15:34.354Z,2.53
2019-05-13T15:18:02.221Z,2.70
2019-05-13T15:20:33.122Z,2.70
2019-05-13T15:23:06.409Z,2.50
2019-05-13T15:25:43.303Z,2.70
2019-05-13T15:28:14.332Z,3.03
2019-05-13T15:30:42.148Z,2.37
2019-05-13T15:36:05.128Z,4.00
2019-05-13T15:38:32.438Z,4.87
2019-05-13T15:41:07.185Z,5.53
2019-05-13T15:43:36.612Z,3.87
2019-05-13T15:46:07.294Z,4.53
2019-05-13T15:51:49.875Z,5.57
2019-05-13T15:54:17.181Z,4.57
2019-05-13T15:56:44.273Z,5.00
2019-05-13T15:59:12.621Z,4.80
2019-05-13T16:01:47.867Z,4.10
2019-05-13T16:04:15.037Z,4.27
2019-05-13T16:06:42.127Z,4.67
2019-05-13T16:09:11.579Z,3.83
2019-05-13T16:11:44.900Z,4.33
2019-05-13T16:14:12.007Z,4.07
2019-05-13T16:16:41.561Z,4.93
2019-05-13T16:19:17.874Z,5.27
2019-05-13T16:21:45.175Z,3.70
2019-05-13T16:24:12.305Z,3.67
2019-05-13T16:26:39.498Z,5.30
2019-05-13T16:29:06.672Z,3.60
2019-05-13T16:31:33.768Z,4.87
2019-05-13T16:34:01.640Z,4.63
2019-05-13T16:36:36.397Z,4.70
2019-05-13T16:42:24.796Z,4.03
2019-05-13T16:44:51.919Z,4.30
2019-05-13T16:47:21.155Z,3.97
2019-05-13T16:49:57.532Z,3.80
2019-05-13T16:52:44.176Z,3.20
2019-05-13T16:55:12.823Z,4.07
2019-05-13T16:57:47.008Z,4.07
2019-05-13T17:00:14.385Z,3.27
2019-05-13T17:02:42.323Z,3.70
2019-05-13T17:05:16.581Z,3.70
2019-05-13T17:07:43.665Z,4.57
2019-05-13T17:10:51.673Z,4.73
2019-05-13T17:16:41.217Z,3.43
2019-05-13T17:19:14.302Z,3.97
2019-05-13T17:21:41.402Z,4.23
2019-05-13T17:24:08.573Z,3.77
2019-05-13T17:26:35.711Z,4.73
2019-05-13T17:29:02.821Z,5.80
2019-05-13T17:31:32.361Z,4.50
2019-05-13T17:34:05.000Z,5.90
2019-05-13T17:36:32.620Z,4.40
2019-05-13T17:39:07.799Z,5.03
2019-05-13T17:41:34.880Z,5.60
2019-05-13T17:44:02.380Z,4.70
2019-05-13T17:46:41.817Z,4.73
2019-05-13T17:49:15.861Z,6.00
2019-05-13T17:52:02.682Z,5.63
2019-05-13T17:54:42.781Z,4.87
2019-05-13T17:57:16.393Z,4.50
2019-05-13T17:59:56.590Z,4.40
2019-05-13T18:02:36.814Z,4.80
2019-05-13T18:05:04.198Z,5.03
2019-05-13T18:07:32.118Z,5.10
2019-05-13T18:10:12.017Z,5.43
2019-05-13T18:12:45.230Z,4.30
2019-05-13T18:15:53.152Z,5.33
2019-05-13T18:18:21.545Z,4.90
2019-05-13T18:21:08.500Z,5.73
2019-05-13T18:23:35.605Z,5.97
2019-05-13T18:26:02.836Z,4.80
2019-05-13T18:28:31.422Z,5.20
2019-05-13T18:31:05.552Z,4.53
2019-05-13T18:33:32.679Z,5.43
2019-05-13T18:36:01.746Z,4.20
2019-05-13T18:38:34.871Z,5.00
2019-05-13T18:41:02.074Z,4.77
2019-05-13T18:43:29.203Z,5.10
2019-05-13T18:45:56.287Z,4.77
2019-05-13T18:48:23.378Z,4.47
2019-05-13T18:50:52.380Z,4.70
2019-05-13T18:53:25.840Z,5.20
2019-05-13T18:55:52.939Z,4.80
2019-05-13T18:58:22.070Z,4.97
2019-05-13T19:00:55.231Z,5.30
2019-05-13T19:03:22.293Z,4.33
2019-05-13T19:05:49.409Z,3.80
2019-05-13T19:08:16.537Z,4.00
2019-05-13T19:10:43.641Z,4.37
2019-05-13T19:13:12.391Z,3.97
2019-05-13T19:15:45.867Z,4.10
2019-05-13T19:18:12.969Z,4.50
2019-05-13T19:20:41.889Z,4.43
2019-05-13T19:23:15.327Z,5.13
2019-05-13T19:25:42.885Z,5.03
2019-05-13T19:28:22.275Z,4.13
2019-05-13T19:30:56.949Z,3.90
2019-05-13T19:33:31.734Z,3.93
2019-05-13T19:36:01.150Z,5.77
2019-05-13T19:38:37.595Z,4.50
2019-05-13T19:41:04.679Z,4.70
2019-05-13T19:43:31.777Z,4.07
2019-05-13T19:46:01.221Z,3.80
2019-05-13T19:48:34.556Z,3.90
2019-05-13T19:51:01.859Z,4.10
2019-05-13T19:53:28.935Z,4.03
2019-05-13T19:55:56.173Z,3.90
2019-05-13T19:58:23.362Z,4.20
2019-05-13T20:00:51.586Z,4.00
2019-05-13T20:03:31.528Z,4.73
2019-05-13T20:06:04.184Z,4.60
2019-05-13T20:08:32.004Z,4.33
2019-05-13T20:11:11.501Z,4.27
2019-05-13T20:13:45.620Z,4.10
2019-05-13T20:16:12.745Z,4.30
2019-05-13T20:18:41.397Z,4.23
2019-05-13T20:21:15.344Z,4.97
2019-05-13T20:23:42.474Z,4.80
2019-05-13T20:26:09.551Z,4.00
2019-05-13T20:28:36.686Z,4.73
2019-05-13T20:31:03.772Z,4.37
2019-05-13T20:33:31.991Z,5.03
2019-05-13T20:36:11.753Z,4.53
2019-05-13T20:38:48.434Z,5.00
2019-05-13T20:41:15.570Z,4.40
2019-05-13T20:43:42.810Z,6.30
2019-05-13T20:46:11.316Z,6.00
2019-05-13T20:48:45.457Z,4.53
2019-05-13T20:51:12.559Z,7.93
2019-05-13T20:53:41.226Z,7.73
2019-05-13T20:56:18.256Z,4.90
2019-05-13T20:58:45.404Z,5.70
2019-05-13T21:01:12.499Z,5.77
2019-05-13T21:03:41.823Z,5.20
2019-05-13T21:06:15.010Z,4.50
2019-05-13T21:08:42.055Z,4.90
2019-05-13T21:11:11.354Z,4.90
2019-05-13T21:13:38.169Z,5.17
2019-05-13T21:16:05.227Z,5.50
2019-05-13T21:18:32.295Z,5.13
2019-05-13T21:20:59.439Z,5.27
2019-05-13T21:23:26.545Z,4.77
2019-05-13T21:25:53.651Z,4.90
2019-05-13T21:28:22.079Z,5.87
2019-05-13T21:30:51.431Z,5.40
2019-05-13T21:33:18.555Z,5.57
2019-05-13T21:35:45.607Z,5.40
2019-05-13T21:38:12.721Z,4.53
2019-05-13T21:40:41.533Z,4.40
2019-05-13T21:43:08.802Z,5.00
2019-05-13T21:45:35.860Z,5.67
2019-05-13T21:48:02.927Z,5.37
2019-05-13T21:50:36.366Z,5.27
2019-05-13T21:52:58.979Z,5.20
2019-05-13T21:55:28.953Z,5.10
2019-05-13T21:57:56.038Z,5.60
2019-05-13T22:00:25.460Z,5.30
2019-05-13T22:02:52.536Z,5.00
2019-05-13T22:05:19.598Z,5.47
2019-05-13T22:07:47.288Z,5.67
2019-05-13T22:10:14.435Z,6.03
2019-05-13T22:12:41.573Z,5.23
2019-05-13T22:15:09.654Z,5.50
2019-05-13T22:17:36.749Z,6.40
2019-05-13T22:20:04.512Z,5.20
2019-05-13T22:22:32.130Z,5.20
2019-05-13T22:25:01.783Z,5.70
2019-05-13T22:27:28.232Z,5.67
2019-05-13T22:29:55.297Z,6.17
2019-05-13T22:32:22.362Z,5.20
2019-05-13T22:34:51.170Z,5.30
2019-05-13T22:37:18.400Z,5.57
2019-05-13T22:39:45.456Z,5.90
2019-05-13T22:42:12.674Z,5.33
2019-05-13T22:44:41.717Z,5.58
2019-05-13T22:47:13.096Z,5.35
2019-05-13T22:49:37.783Z,4.90
2019-05-13T22:52:04.890Z,6.65
2019-05-13T22:54:32.045Z,6.20
2019-05-13T22:56:59.131Z,6.75
2019-05-13T22:59:26.175Z,6.00
2019-05-13T23:01:53.266Z,6.70
2019-05-13T23:04:20.337Z,6.15
2019-05-13T23:06:47.432Z,7.40
2019-05-13T23:09:14.475Z,6.10
2019-05-13T23:11:41.856Z,6.33
2019-05-13T23:14:12.883Z,6.80
2019-05-13T23:27:32.005Z,7.90
2019-05-13T23:37:08.398Z,10.82
2019-05-13T23:39:35.476Z,9.25
2019-05-13T23:42:02.611Z,7.80
2019-05-13T23:44:32.015Z,7.97
2019-05-13T23:46:58.696Z,6.60
2019-05-13T23:49:25.806Z,6.78
2019-05-13T23:51:52.880Z,5.90
2019-05-13T23:54:21.385Z,5.83
2019-05-13T23:56:48.728Z,6.60
2019-05-13T23:59:15.880Z,6.35
